Time;durP1;ratioP1;P1;durP2;ratioP2;P2;SDS_P1;SDS_P2;PMS_P1;PMS_P2;Temp;Humidity;BMP_temperature;BMP_pressure;BME280_temperature;BME280_humidity;BME280_pressure;Samples;Min_cycle;Max_cycle;Signal;HPM_P1;HPM_P2
2022/09/12 00:02:01;;;;;;;12.43;11.00;;;;;;;16.93;73.79;100752.53;4163582;28;20045;-65
2022/09/12 00:04:04;;;;;;;14.02;11.48;;;;;;;16.91;73.81;100751.69;4162331;28;20064;-65
2022/09/12 00:06:10;;;;;;;12.02;10.68;;;;;;;16.91;73.84;100753.44;4166008;28;20046;-65
2022/09/12 00:08:14;;;;;;;13.82;10.18;;;;;;;16.89;73.84;100753.44;4165013;28;20036;-65
2022/09/12 00:10:18;;;;;;;16.23;11.45;;;;;;;16.90;73.79;100751.69;4165187;28;20475;-65
2022/09/12 00:12:21;;;;;;;13.90;9.63;;;;;;;16.86;73.97;100755.19;4164889;28;20037;-65
2022/09/12 00:14:24;;;;;;;13.85;11.48;;;;;;;16.85;73.84;100750.81;4157681;28;20161;-65
2022/09/12 00:16:29;;;;;;;15.35;11.77;;;;;;;16.87;73.81;100743.81;4160355;28;20045;-65
2022/09/12 00:18:32;;;;;;;19.35;12.70;;;;;;;16.87;73.81;100744.69;4161674;28;20045;-65
2022/09/12 00:20:35;;;;;;;11.43;10.00;;;;;;;16.84;73.81;100742.06;4164602;28;20037;-65
2022/09/12 00:22:38;;;;;;;14.73;10.60;;;;;;;16.83;73.41;100744.69;4163575;28;20072;-65
2022/09/12 00:24:41;;;;;;;13.82;10.85;;;;;;;16.82;73.53;100741.22;4179658;28;20053;-66
2022/09/12 00:26:45;;;;;;;11.93;9.80;;;;;;;16.80;73.33;100737.72;4162537;28;20041;-66
2022/09/12 00:28:49;;;;;;;16.92;12.30;;;;;;;16.79;73.49;100735.09;4162713;28;20034;-66
2022/09/12 00:30:52;;;;;;;13.85;12.40;;;;;;;16.79;73.19;100735.09;4155653;28;20042;-66
2022/09/12 00:32:55;;;;;;;15.40;12.20;;;;;;;16.73;73.28;100742.16;4162423;28;20045;-66
2022/09/12 00:34:57;;;;;;;13.18;10.70;;;;;;;16.72;73.42;100736.91;4162791;28;20410;-66
2022/09/12 00:37:00;;;;;;;13.27;10.52;;;;;;;16.68;73.58;100733.41;4165558;28;20045;-66
2022/09/12 00:39:04;;;;;;;13.63;10.82;;;;;;;16.69;73.60;100726.41;4164431;28;20454;-66
2022/09/12 00:41:07;;;;;;;12.88;10.95;;;;;;;16.71;73.52;100729.91;4163089;28;20059;-66
2022/09/12 00:43:13;;;;;;;11.30;10.10;;;;;;;16.73;73.48;100734.28;4196361;28;20436;-66
2022/09/12 00:45:23;;;;;;;13.57;10.40;;;;;;;16.68;73.54;100732.56;4164303;28;20031;-66
2022/09/12 00:47:29;;;;;;;14.38;10.90;;;;;;;16.67;73.69;100733.44;4163413;28;20091;-67
2022/09/12 00:49:36;;;;;;;12.88;10.73;;;;;;;16.65;73.63;100729.97;4164768;28;20048;-66
2022/09/12 00:51:42;;;;;;;12.88;10.95;;;;;;;16.65;73.60;100733.44;4163092;28;20069;-66
2022/09/12 00:53:48;;;;;;;17.25;10.50;;;;;;;16.60;73.60;100729.97;4163856;28;20411;-66
2022/09/12 00:55:54;;;;;;;11.77;9.65;;;;;;;16.61;73.44;100729.09;4162766;28;20045;-65
2022/09/12 00:58:02;;;;;;;13.38;11.93;;;;;;;16.66;73.57;100731.69;4161293;28;20041;-66
2022/09/12 01:00:13;;;;;;;15.88;11.25;;;;;;;16.65;73.60;100727.34;4162443;28;20030;-65
2022/09/12 01:02:17;;;;;;;13.07;10.90;;;;;;;16.62;73.85;100730.84;4158748;28;20037;-66
2022/09/12 01:04:22;;;;;;;13.00;10.82;;;;;;;16.62;73.73;100729.94;4174907;28;20120;-66
2022/09/12 01:06:28;;;;;;;12.10;10.80;;;;;;;16.57;74.11;100727.34;4164360;28;20465;-65
2022/09/12 01:08:36;;;;;;;13.52;9.90;;;;;;;16.54;74.26;100727.38;4178027;28;20108;-65
2022/09/12 01:10:41;;;;;;;13.52;10.85;;;;;;;16.55;74.57;100724.75;4162202;28;20068;-65
2022/09/12 01:12:44;;;;;;;13.30;11.20;;;;;;;16.54;74.40;100722.13;4163740;28;20029;-66
2022/09/12 01:14:47;;;;;;;12.65;10.13;;;;;;;16.55;74.36;100721.25;4161105;28;20265;-66
2022/09/12 01:16:54;;;;;;;12.30;10.38;;;;;;;16.55;74.24;100722.13;4158601;28;20045;-66
2022/09/12 01:19:08;;;;;;;13.27;11.95;;;;;;;16.57;73.92;100717.75;4162851;28;20068;-65
2022/09/12 01:21:20;;;;;;;13.88;11.65;;;;;;;16.54;73.78;100711.63;4162073;28;20511;-66
2022/09/12 01:23:56;;;;;;;13.95;10.75;;;;;;;16.48;73.77;100715.16;4161408;28;20033;-66
2022/09/12 01:26:07;;;;;;;13.90;11.23;;;;;;;16.46;74.15;100723.94;4159302;28;20038;-65
2022/09/12 01:28:31;;;;;;;15.30;11.20;;;;;;;16.39;74.44;100716.09;4159256;28;20034;-66
2022/09/12 01:30:45;;;;;;;15.52;10.60;;;;;;;16.35;74.26;100711.75;4162493;28;20487;-66
2022/09/12 01:33:01;;;;;;;14.13;11.27;;;;;;;16.38;74.32;100709.13;4164786;28;20064;-66
2022/09/12 01:35:15;;;;;;;14.27;10.15;;;;;;;16.37;74.58;100704.75;4155877;28;20088;-65
2022/09/12 01:37:27;;;;;;;14.40;11.25;;;;;;;16.40;74.58;100709.97;4162562;28;20483;-66
2022/09/12 01:39:39;;;;;;;13.05;10.65;;;;;;;16.39;74.26;100710.84;4162776;28;20041;-66
2022/09/12 01:41:53;;;;;;;13.80;12.30;;;;;;;16.39;74.17;100705.59;4162876;28;20029;-65
2022/09/12 01:44:05;;;;;;;12.10;10.80;;;;;;;16.39;74.27;100707.34;4161632;28;20037;-65
2022/09/12 01:46:16;;;;;;;15.00;10.35;;;;;;;16.39;74.35;100702.09;4156192;28;20111;-65
2022/09/12 01:48:21;;;;;;;12.70;10.82;;;;;;;16.35;74.45;100709.13;4163524;28;20033;-65
2022/09/12 01:50:28;;;;;;;12.05;10.85;;;;;;;16.34;74.44;100699.50;4162662;28;20037;-65
2022/09/12 01:52:38;;;;;;;12.20;10.48;;;;;;;16.34;74.34;100706.50;4163332;28;20124;-65
2022/09/12 01:54:46;;;;;;;12.25;10.75;;;;;;;16.33;74.56;100697.75;4162033;28;20038;-65
2022/09/12 01:56:55;;;;;;;13.25;11.13;;;;;;;16.31;74.50;100702.16;4155467;28;20275;-66
2022/09/12 01:59:04;;;;;;;16.13;11.98;;;;;;;16.28;74.79;100694.31;4162201;28;20045;-65
2022/09/12 02:01:14;;;;;;;15.23;12.40;;;;;;;16.28;74.51;100698.66;4161367;28;20427;-65
2022/09/12 02:03:20;;;;;;;13.82;10.88;;;;;;;16.26;74.68;100695.19;4163925;28;20475;-65
2022/09/12 02:05:31;;;;;;;14.85;11.88;;;;;;;16.26;74.71;100690.81;4163163;28;20196;-65
2022/09/12 02:07:39;;;;;;;11.95;9.68;;;;;;;16.23;74.75;100693.44;4164443;28;20488;-65
2022/09/12 02:09:47;;;;;;;11.38;10.15;;;;;;;16.19;74.68;100694.34;4163727;28;20037;-65
2022/09/12 02:11:53;;;;;;;12.50;10.95;;;;;;;16.15;74.96;100692.59;4146268;28;20526;-65
2022/09/12 02:14:01;;;;;;;14.80;10.90;;;;;;;16.21;74.75;100692.59;4164006;28;20034;-66
2022/09/12 02:16:09;;;;;;;12.35;10.77;;;;;;;16.23;74.62;100685.56;4163973;28;20041;-65
2022/09/12 02:18:17;;;;;;;11.18;9.98;;;;;;;16.19;74.73;100689.97;4164073;28;20044;-65
2022/09/12 02:20:23;;;;;;;11.32;9.38;;;;;;;16.21;74.29;100696.09;4164283;28;20514;-65
2022/09/12 02:22:50;;;;;;;12.32;10.82;;;;;;;16.18;74.29;100692.63;4162209;28;20125;-65
2022/09/12 02:24:57;;;;;;;11.98;10.48;;;;;;;16.20;74.18;100685.59;4160982;28;20044;-65
2022/09/12 02:27:09;;;;;;;14.63;11.68;;;;;;;16.21;74.19;100684.72;4163088;28;20073;-65
2022/09/12 02:29:12;;;;;;;13.50;11.32;;;;;;;16.16;74.52;100679.47;4161220;28;20038;-65
2022/09/12 02:31:22;;;;;;;13.05;11.65;;;;;;;16.13;74.54;100679.50;4162723;28;20065;-65
2022/09/12 02:33:30;;;;;;;12.95;10.55;;;;;;;16.12;74.31;100679.50;4139153;28;20045;-65
2022/09/12 02:35:39;;;;;;;14.07;12.43;;;;;;;16.14;74.42;100681.25;4163088;28;20034;-65
2022/09/12 02:37:55;;;;;;;12.48;11.18;;;;;;;16.10;73.84;100669.03;4160369;28;20037;-65
2022/09/12 02:40:00;;;;;;;12.15;10.70;;;;;;;16.07;74.55;100683.94;4158416;28;20099;-65
2022/09/12 02:42:03;;;;;;;14.25;12.07;;;;;;;16.04;74.30;100680.41;4161689;28;20040;-65
2022/09/12 02:44:06;;;;;;;10.73;9.63;;;;;;;16.01;74.54;100680.44;4161868;28;20041;-65
2022/09/12 02:46:16;;;;;;;12.30;10.23;;;;;;;16.02;74.90;100683.94;4162442;28;20053;-65
2022/09/12 02:48:23;;;;;;;13.48;10.63;;;;;;;15.98;74.92;100683.06;4144400;28;20076;-65
2022/09/12 02:50:27;;;;;;;13.27;11.88;;;;;;;15.97;74.64;100683.09;4162682;28;20037;-64
2022/09/12 02:52:31;;;;;;;;;;;;;;;15.80;75.27;100677.91;4164348;28;20069;-64
2022/09/12 02:54:34;;;;;;;12.43;10.00;;;;;;;15.86;75.28;100680.53;4162014;28;19975;-64
2022/09/12 02:56:42;;;;;;;13.30;10.25;;;;;;;15.92;75.09;100677.88;4162744;28;20080;-64
2022/09/12 02:58:45;;;;;;;11.00;8.65;;;;;;;15.92;75.05;100679.63;4160645;28;20061;-64
2022/09/12 03:00:54;;;;;;;13.52;11.80;;;;;;;15.92;74.70;100674.38;4161428;28;20132;-64
2022/09/12 03:03:18;;;;;;;12.55;11.25;;;;;;;15.93;75.17;100684.88;4160653;28;20775;-64
2022/09/12 03:05:26;;;;;;;12.52;10.73;;;;;;;15.93;74.95;100677.00;4158843;28;20037;-64
2022/09/12 03:07:50;;;;;;;16.67;10.38;;;;;;;15.91;74.90;100678.75;4161718;28;20047;-64
2022/09/12 03:10:04;;;;;;;13.90;10.55;;;;;;;15.86;74.84;100670.91;4155638;28;20037;-64
2022/09/12 03:12:21;;;;;;;12.23;10.60;;;;;;;15.85;74.85;100676.16;4161476;28;20096;-64
2022/09/12 03:14:37;;;;;;;15.52;11.20;;;;;;;15.75;75.06;100675.28;4160717;28;20037;-64
2022/09/12 03:16:47;;;;;;;11.80;10.55;;;;;;;15.72;75.67;100672.66;4158091;28;20076;-64
2022/09/12 03:18:58;;;;;;;12.63;10.10;;;;;;;15.72;75.75;100667.41;4163336;28;20137;-64
2022/09/12 03:21:06;;;;;;;16.23;11.65;;;;;;;15.75;75.20;100663.91;4163044;28;20053;-64
2022/09/12 03:23:19;;;;;;;13.98;10.32;;;;;;;15.75;74.91;100670.03;4159848;28;20973;-64
2022/09/12 03:25:28;;;;;;;14.02;11.15;;;;;;;15.75;74.92;100663.91;4164592;28;20395;-64
2022/09/12 03:27:34;;;;;;;13.43;11.45;;;;;;;15.71;74.42;100661.31;4178069;28;20547;-64
2022/09/12 03:29:40;;;;;;;13.02;10.73;;;;;;;15.73;74.39;100658.69;4164087;28;20042;-64
2022/09/12 03:31:51;;;;;;;14.00;11.57;;;;;;;15.75;74.27;100659.53;4164453;28;20037;-64
2022/09/12 03:33:53;;;;;;;15.05;11.13;;;;;;;15.70;74.61;100659.56;4161293;28;20065;-64
2022/09/12 03:35:56;;;;;;;12.68;10.05;;;;;;;15.68;74.17;100657.81;4165147;28;20038;-65
2022/09/12 03:37:59;;;;;;;11.05;9.88;;;;;;;15.65;74.43;100660.44;4163742;28;20042;-64
2022/09/12 03:40:05;;;;;;;12.35;10.05;;;;;;;15.59;75.06;100661.34;4169348;28;20072;-65
2022/09/12 03:42:07;;;;;;;13.73;9.30;;;;;;;15.57;75.23;100660.50;4158975;28;20038;-64
2022/09/12 03:44:10;;;;;;;12.98;10.30;;;;;;;15.58;74.34;100658.72;4162868;28;20534;-64
2022/09/12 03:46:14;;;;;;;13.25;9.98;;;;;;;15.54;74.64;100663.97;4163648;28;20116;-65
2022/09/12 03:48:16;;;;;;;13.55;9.75;;;;;;;15.52;74.74;100657.88;4164668;28;20044;-65
2022/09/12 03:50:19;;;;;;;12.45;9.38;;;;;;;15.51;75.29;100661.38;4167183;28;20423;-65
2022/09/12 03:52:22;;;;;;;14.82;11.13;;;;;;;15.48;75.25;100658.78;4164110;28;20508;-65
2022/09/12 03:54:25;;;;;;;21.77;15.52;;;;;;;15.63;76.79;100660.47;4164557;28;20129;-58
2022/09/12 03:56:30;;;;;;;19.05;13.27;;;;;;;16.13;75.98;100660.28;4166223;28;20543;-58
2022/09/12 03:58:34;;;;;;;;;;;;;;;16.49;75.43;100660.94;4162906;28;20494;-59
2022/09/12 04:00:38;;;;;;;13.15;9.98;;;;;;;16.73;73.44;100655.50;4161232;28;20008;-59
2022/09/12 04:02:41;;;;;;;11.93;9.88;;;;;;;16.87;72.17;100662.41;4165584;28;20060;-59
2022/09/12 04:04:47;;;;;;;11.80;9.02;;;;;;;17.02;71.77;100657.03;4162950;28;20041;-59
2022/09/12 04:06:50;;;;;;;11.27;8.70;;;;;;;17.15;71.16;100657.78;4156046;28;20049;-59
2022/09/12 04:08:54;;;;;;;13.93;9.60;;;;;;;17.26;71.05;100662.94;4166745;28;20072;-59
2022/09/12 04:11:02;;;;;;;13.23;9.40;;;;;;;17.32;70.38;100656.72;4164650;28;20072;-58
2022/09/12 04:13:06;;;;;;;12.57;10.65;;;;;;;17.11;69.66;100661.31;4163463;28;20037;-65
2022/09/12 04:15:10;;;;;;;11.20;9.90;;;;;;;16.79;70.09;100666.84;4162149;28;20100;-65
2022/09/12 04:17:13;;;;;;;12.23;9.60;;;;;;;16.52;70.63;100667.03;4163180;28;20099;-64
2022/09/12 04:19:17;;;;;;;14.05;10.07;;;;;;;16.26;71.60;100659.31;4164253;28;20132;-64
2022/09/12 04:21:21;;;;;;;12.30;10.55;;;;;;;16.12;72.20;100663.78;4165125;28;20076;-65
2022/09/12 04:23:25;;;;;;;12.20;9.95;;;;;;;15.97;72.29;100657.72;4164448;28;20037;-64
2022/09/12 04:25:31;;;;;;;14.13;9.90;;;;;;;15.87;72.44;100667.41;4165490;28;20087;-64
2022/09/12 04:27:34;;;;;;;12.93;10.80;;;;;;;15.81;72.72;100663.94;4166003;28;20049;-64
2022/09/12 04:29:38;;;;;;;13.68;11.45;;;;;;;15.74;73.08;100664.78;4148518;28;20074;-64
2022/09/12 04:31:41;;;;;;;16.02;9.98;;;;;;;15.66;73.13;100657.81;4162831;28;20060;-64
2022/09/12 04:33:45;;;;;;;15.55;10.75;;;;;;;15.62;73.90;100658.72;4165413;28;20034;-64
2022/09/12 04:35:49;;;;;;;13.85;10.63;;;;;;;15.56;74.46;100657.88;4165845;28;20037;-64
2022/09/12 04:37:51;;;;;;;16.02;10.95;;;;;;;15.57;74.31;100665.72;4164561;28;20046;-64
2022/09/12 04:39:56;;;;;;;12.40;10.77;;;;;;;15.54;74.34;100663.13;4164642;28;20521;-64
2022/09/12 04:41:59;;;;;;;15.90;10.23;;;;;;;15.53;73.76;100661.38;4164449;28;20045;-64
2022/09/12 04:44:04;;;;;;;14.18;11.35;;;;;;;15.47;74.44;100662.25;4164091;28;20052;-64
2022/09/12 04:46:10;;;;;;;12.55;9.35;;;;;;;15.45;74.10;100660.50;4164646;28;20055;-64
2022/09/12 04:48:13;;;;;;;13.77;9.38;;;;;;;15.39;74.01;100663.16;4165591;28;20410;-64
2022/09/12 04:50:16;;;;;;;12.27;9.52;;;;;;;15.32;74.39;100670.16;4165657;28;20499;-64
2022/09/12 04:52:19;;;;;;;12.60;9.90;;;;;;;15.29;74.85;100664.94;4165546;28;20495;-64
2022/09/12 04:54:22;;;;;;;13.63;9.75;;;;;;;15.23;75.07;100657.06;4163516;28;20045;-64
2022/09/12 04:56:26;;;;;;;12.95;10.93;;;;;;;15.23;75.23;100655.34;4164200;28;20403;-64
2022/09/12 04:58:31;;;;;;;13.77;10.52;;;;;;;15.21;74.98;100664.94;4165419;28;20124;-64
2022/09/12 05:00:33;;;;;;;14.00;10.40;;;;;;;15.23;74.71;100652.72;4165439;28;20140;-64
2022/09/12 05:02:38;;;;;;;15.45;11.57;;;;;;;15.25;74.68;100656.19;4164492;28;20041;-64
2022/09/12 05:04:40;;;;;;;11.95;9.63;;;;;;;15.25;74.43;100655.34;4165005;28;20068;-64
2022/09/12 05:06:45;;;;;;;16.23;11.05;;;;;;;15.23;74.51;100655.34;4165309;28;20079;-65
2022/09/12 05:08:48;;;;;;;16.88;10.60;;;;;;;15.20;75.36;100655.34;4165307;28;20143;-64
2022/09/12 05:10:51;;;;;;;11.73;9.60;;;;;;;15.14;74.81;100655.34;4163103;28;20104;-64
2022/09/12 05:12:54;;;;;;;14.80;9.73;;;;;;;15.18;75.29;100651.84;4165219;28;20380;-64
2022/09/12 05:14:57;;;;;;;13.43;10.18;;;;;;;15.23;74.56;100649.22;4164812;28;20457;-64
2022/09/12 05:17:00;;;;;;;14.45;10.80;;;;;;;15.20;74.97;100663.22;4163272;28;20530;-64
2022/09/12 05:19:05;;;;;;;18.03;13.23;;;;;;;15.20;74.77;100657.97;4163578;28;20050;-64
2022/09/12 05:21:10;;;;;;;14.48;10.45;;;;;;;15.19;74.41;100662.31;4163012;28;20357;-64
2022/09/12 05:23:13;;;;;;;14.60;11.32;;;;;;;15.22;75.15;100661.44;4164783;28;20038;-64
2022/09/12 05:25:16;;;;;;;15.35;11.82;;;;;;;15.25;74.85;100666.69;4164996;28;20046;-64
2022/09/12 05:27:19;;;;;;;16.48;12.30;;;;;;;15.25;74.84;100669.28;4165082;28;20046;-64
2022/09/12 05:29:23;;;;;;;11.93;10.40;;;;;;;15.24;75.17;100662.31;4165096;28;20038;-64
2022/09/12 05:31:28;;;;;;;18.55;11.57;;;;;;;15.24;74.69;100662.31;4163240;28;20042;-64
2022/09/12 05:33:32;;;;;;;12.50;10.07;;;;;;;15.22;75.24;100666.69;4163732;28;20506;-64
2022/09/12 05:35:37;;;;;;;15.07;10.20;;;;;;;15.24;75.29;100664.91;4165200;28;20537;-64
2022/09/12 05:37:40;;;;;;;14.98;11.02;;;;;;;15.27;74.44;100656.19;4163451;28;20115;-64
2022/09/12 05:39:43;;;;;;;14.70;9.60;;;;;;;15.29;74.43;100665.81;4166875;28;20495;-64
2022/09/12 05:41:46;;;;;;;14.02;10.50;;;;;;;15.28;75.19;100666.66;4163905;28;20043;-64
2022/09/12 05:43:52;;;;;;;12.60;10.82;;;;;;;15.31;75.17;100669.28;4164624;28;20506;-64
2022/09/12 05:46:00;;;;;;;15.20;12.07;;;;;;;15.32;75.30;100663.16;4156097;28;20041;-64
2022/09/12 05:48:03;;;;;;;13.50;10.93;;;;;;;15.32;75.19;100670.16;4163528;28;20034;-64
2022/09/12 05:50:09;;;;;;;17.60;11.77;;;;;;;15.36;75.23;100658.78;4164680;28;20041;-64
2022/09/12 05:52:16;;;;;;;15.20;10.43;;;;;;;15.35;75.49;100672.78;4163524;28;20046;-64
2022/09/12 05:54:20;;;;;;;14.98;11.13;;;;;;;15.38;75.14;100671.91;4164250;28;20067;-64
2022/09/12 05:56:24;;;;;;;13.88;11.00;;;;;;;15.43;74.77;100673.63;4163298;28;20411;-64
2022/09/12 05:58:27;;;;;;;16.10;11.95;;;;;;;15.43;75.33;100676.22;4163645;28;20037;-64
2022/09/12 06:00:30;;;;;;;15.52;11.02;;;;;;;15.45;75.30;100676.22;4163199;28;20065;-64
2022/09/12 06:02:35;;;;;;;19.63;12.18;;;;;;;15.51;75.23;100673.63;4164392;28;20132;-64
2022/09/12 06:04:40;;;;;;;15.60;10.63;;;;;;;15.56;74.94;100671.84;4162690;28;20132;-64
2022/09/12 06:06:45;;;;;;;12.55;10.05;;;;;;;15.56;74.69;100679.69;4161642;28;20531;-64
2022/09/12 06:08:50;;;;;;;14.27;11.93;;;;;;;15.54;75.40;100669.22;4162367;28;20037;-64
2022/09/12 06:10:58;;;;;;;15.07;11.88;;;;;;;15.63;74.70;100673.56;4170761;28;20076;-64
2022/09/12 06:13:04;;;;;;;17.05;12.52;;;;;;;15.70;74.78;100677.06;4162846;28;20073;-64
2022/09/12 06:15:07;;;;;;;20.33;15.05;;;;;;;15.78;74.44;100671.78;4164588;28;20045;-64
2022/09/12 06:17:10;;;;;;;16.93;14.40;;;;;;;15.81;74.04;100677.03;4159034;28;20041;-64
2022/09/12 06:19:15;;;;;;;16.50;13.20;;;;;;;15.91;73.79;100673.50;4164566;28;20088;-64
2022/09/12 06:21:18;;;;;;;15.60;11.55;;;;;;;15.90;73.89;100674.34;4163862;28;20095;-64
2022/09/12 06:23:21;;;;;;;17.13;14.35;;;;;;;15.95;73.16;100669.97;4163095;28;20402;-64
2022/09/12 06:25:25;;;;;;;17.98;14.45;;;;;;;15.99;73.04;100673.44;4164473;28;20033;-64
2022/09/12 06:27:28;;;;;;;16.80;12.88;;;;;;;15.98;72.88;100664.72;4161561;28;20087;-64
2022/09/12 06:29:31;;;;;;;18.92;13.52;;;;;;;16.02;72.75;100663.84;4160247;28;20038;-64
2022/09/12 06:31:36;;;;;;;16.33;12.55;;;;;;;16.11;72.67;100659.44;4164086;28;20038;-64
2022/09/12 06:33:40;;;;;;;17.83;13.85;;;;;;;16.13;72.11;100668.16;4163833;28;20034;-64
2022/09/12 06:35:43;;;;;;;16.17;13.68;;;;;;;16.23;71.66;100660.22;4164115;28;20100;-64
2022/09/12 06:37:46;;;;;;;18.23;14.30;;;;;;;16.20;71.87;100659.38;4146509;28;20100;-64
2022/09/12 06:39:48;;;;;;;16.48;13.15;;;;;;;16.19;71.45;100652.38;4163355;28;20120;-64
2022/09/12 06:41:53;;;;;;;17.55;14.10;;;;;;;16.22;71.59;100652.34;4156125;28;20065;-64
2022/09/12 06:44:09;;;;;;;22.73;15.73;;;;;;;16.27;71.87;100655.84;4146032;28;20038;-64
2022/09/12 06:46:12;;;;;;;18.40;14.63;;;;;;;16.30;71.76;100655.81;4162749;28;20045;-64
2022/09/12 06:48:15;;;;;;;22.13;17.17;;;;;;;16.37;71.43;100662.75;4164084;28;20048;-64
2022/09/12 06:50:20;;;;;;;20.73;16.10;;;;;;;16.37;71.20;100657.50;4167482;28;20136;-64
2022/09/12 06:52:24;;;;;;;20.90;13.80;;;;;;;16.34;71.41;100664.50;4166171;28;20069;-64
2022/09/12 06:54:27;;;;;;;21.38;17.73;;;;;;;16.46;71.33;100669.69;4165474;28;20513;-64
2022/09/12 06:56:30;;;;;;;19.77;15.40;;;;;;;16.52;70.74;100668.78;4167179;28;20041;-64
2022/09/12 06:58:35;;;;;;;17.75;13.15;;;;;;;16.48;70.94;100669.69;4167156;28;20044;-64
2022/09/12 07:00:38;;;;;;;18.15;12.75;;;;;;;16.49;71.46;100674.06;4166079;28;20037;-64
2022/09/12 07:02:41;;;;;;;16.88;12.32;;;;;;;16.51;71.82;100682.78;4166059;28;20053;-64
2022/09/12 07:04:44;;;;;;;21.00;16.17;;;;;;;16.57;71.86;100673.13;4165655;28;20045;-64
2022/09/12 07:06:47;;;;;;;24.30;17.55;;;;;;;16.71;71.44;100675.63;4167158;28;20495;-64
2022/09/12 07:08:51;;;;;;;17.40;13.90;;;;;;;16.66;71.41;100679.19;4166136;28;20052;-64
2022/09/12 07:10:53;;;;;;;21.65;16.50;;;;;;;16.68;71.71;100677.44;4165944;28;20049;-64
2022/09/12 07:12:57;;;;;;;20.48;17.05;;;;;;;16.79;71.48;100679.97;4166907;28;20051;-64
2022/09/12 07:15:02;;;;;;;22.42;15.55;;;;;;;16.84;71.04;100681.66;4164963;28;20479;-64
2022/09/12 07:17:04;;;;;;;20.58;16.08;;;;;;;16.89;71.18;100679.03;4165531;28;20051;-64
2022/09/12 07:19:08;;;;;;;17.65;15.00;;;;;;;16.91;71.44;100680.78;4167000;28;20044;-64
2022/09/12 07:21:13;;;;;;;20.48;15.48;;;;;;;16.92;71.65;100681.63;4166948;28;20042;-64
2022/09/12 07:23:16;;;;;;;23.08;19.27;;;;;;;17.05;70.87;100674.53;4148829;28;20046;-64
2022/09/12 07:25:18;;;;;;;21.65;14.40;;;;;;;17.05;70.94;100678.00;4166716;28;20037;-64
2022/09/12 07:27:22;;;;;;;28.63;16.40;;;;;;;17.10;71.05;100673.59;4165629;28;20088;-64
2022/09/12 07:29:24;;;;;;;20.92;15.52;;;;;;;17.11;71.30;100671.81;4148469;28;20038;-65
2022/09/12 07:31:39;;;;;;;18.73;14.82;;;;;;;17.10;71.26;100670.97;4166477;28;20034;-64
2022/09/12 07:33:43;;;;;;;21.30;15.30;;;;;;;17.10;71.64;100676.22;4166607;28;20045;-65
2022/09/12 07:35:46;;;;;;;23.20;16.02;;;;;;;17.14;70.92;100670.94;4166768;28;20037;-64
2022/09/12 07:37:49;;;;;;;22.35;15.57;;;;;;;17.23;71.29;100676.09;4165427;28;20045;-64
2022/09/12 07:39:52;;;;;;;25.77;17.30;;;;;;;17.20;71.21;100670.88;4165387;28;20116;-64
2022/09/12 07:41:54;;;;;;;20.02;14.65;;;;;;;17.24;71.41;100670.84;4165420;28;20037;-64
2022/09/12 07:43:59;;;;;;;19.95;13.68;;;;;;;17.34;70.94;100668.97;4163803;28;20045;-64
2022/09/12 07:46:02;;;;;;;19.13;14.55;;;;;;;17.33;70.71;100671.63;4165227;28;20384;-64
2022/09/12 07:48:06;;;;;;;23.27;15.27;;;;;;;17.32;70.95;100669.88;4166575;28;20041;-64
2022/09/12 07:50:09;;;;;;;22.05;16.27;;;;;;;17.41;70.41;100672.44;4166499;28;20414;-64
2022/09/12 07:52:12;;;;;;;21.58;15.05;;;;;;;17.46;70.20;100675.84;4166417;28;20049;-64
2022/09/12 07:54:15;;;;;;;19.52;15.68;;;;;;;17.41;70.42;100675.91;4166079;28;20444;-64
2022/09/12 07:56:20;;;;;;;22.40;16.63;;;;;;;17.51;70.15;100674.06;4166346;28;20557;-65
2022/09/12 07:58:22;;;;;;;16.77;12.65;;;;;;;17.60;69.91;100676.59;4164928;28;20548;-64
2022/09/12 08:00:26;;;;;;;22.52;16.60;;;;;;;17.69;69.62;100675.59;4164192;28;20041;-64
2022/09/12 08:02:30;;;;;;;21.02;15.43;;;;;;;17.74;69.37;100675.53;4165052;28;20565;-64
2022/09/12 08:04:35;;;;;;;23.02;13.35;;;;;;;17.79;69.49;100671.13;4165890;28;20033;-64
2022/09/12 08:06:38;;;;;;;17.13;12.70;;;;;;;17.79;69.68;100669.34;4164911;28;20423;-64
2022/09/12 08:08:41;;;;;;;20.83;14.35;;;;;;;17.88;69.42;100671.00;4164796;28;20585;-64
2022/09/12 08:10:44;;;;;;;18.77;14.47;;;;;;;17.91;68.77;100667.50;4164760;28;20041;-64
2022/09/12 08:12:47;;;;;;;22.48;17.38;;;;;;;18.07;67.41;100666.38;4165245;28;20307;-65
2022/09/12 08:14:50;;;;;;;21.63;15.80;;;;;;;18.10;67.11;100660.22;4159661;28;20038;-65
2022/09/12 08:16:53;;;;;;;28.45;17.33;;;;;;;18.19;67.00;100664.50;4163497;28;20107;-65
2022/09/12 08:18:55;;;;;;;21.02;17.08;;;;;;;18.23;66.76;100660.94;4163475;28;20045;-65
2022/09/12 08:21:01;;;;;;;18.02;15.50;;;;;;;18.25;66.89;100657.38;4165076;28;20037;-65
2022/09/12 08:23:04;;;;;;;20.33;15.43;;;;;;;18.28;66.45;100659.09;4165759;28;20050;-65
2022/09/12 08:25:07;;;;;;;19.50;13.10;;;;;;;18.27;66.65;100662.63;4163317;28;20128;-64
2022/09/12 08:27:10;;;;;;;18.05;11.48;;;;;;;18.35;67.20;100663.38;4165814;28;20049;-64
2022/09/12 08:29:13;;;;;;;15.73;11.43;;;;;;;18.40;67.21;100663.28;4164881;28;20523;-64
2022/09/12 08:31:18;;;;;;;19.77;12.55;;;;;;;18.42;67.69;100666.78;4164261;28;20046;-64
2022/09/12 08:33:21;;;;;;;16.50;13.15;;;;;;;18.39;67.98;100664.22;4164022;28;20041;-64
2022/09/12 08:35:23;;;;;;;15.38;11.90;;;;;;;18.40;67.67;100666.81;4165796;28;20115;-65
2022/09/12 08:37:31;;;;;;;18.17;12.25;;;;;;;18.49;67.96;100658.78;4165713;28;20434;-65
2022/09/12 08:39:34;;;;;;;17.52;12.45;;;;;;;18.57;67.53;100660.41;4165600;28;20099;-64
2022/09/12 08:41:40;;;;;;;15.50;12.18;;;;;;;18.62;67.21;100666.50;4165696;28;20033;-64
2022/09/12 08:43:57;;;;;;;16.23;12.55;;;;;;;18.60;66.82;100666.53;4146953;28;20042;-64
2022/09/12 08:46:06;;;;;;;12.63;9.98;;;;;;;18.64;67.20;100662.06;4158796;28;20064;-65
2022/09/12 08:48:11;;;;;;;12.65;9.98;;;;;;;18.77;66.96;100663.59;4164371;28;20096;-64
2022/09/12 08:50:18;;;;;;;14.48;10.82;;;;;;;18.89;66.21;100662.56;4164335;28;20089;-64
2022/09/12 08:52:27;;;;;;;12.68;10.13;;;;;;;18.99;66.03;100668.53;4165703;28;20103;-64
2022/09/12 08:54:32;;;;;;;13.73;10.40;;;;;;;19.04;65.53;100657.91;4163973;28;20068;-64
2022/09/12 08:56:37;;;;;;;13.73;10.30;;;;;;;19.11;65.54;100660.41;4164592;28;20443;-64
2022/09/12 08:58:40;;;;;;;;;;;;;;;19.17;65.80;100660.31;4164506;28;20639;-64
2022/09/12 09:00:50;;;;;;;14.80;9.90;;;;;;;19.32;65.05;100655.66;4164178;28;20339;-65
2022/09/12 09:03:20;;;;;;;15.38;12.15;;;;;;;19.56;63.04;100646.41;4157606;28;20038;-64
2022/09/12 09:05:38;;;;;;;12.43;9.48;;;;;;;19.62;63.35;100648.91;4165295;28;20061;-64
2022/09/12 09:08:05;;;;;;;13.50;10.45;;;;;;;19.59;63.28;100648.09;4163938;28;20045;-64
2022/09/12 09:10:22;;;;;;;13.75;9.48;;;;;;;19.67;62.71;100647.06;4146966;28;20104;-64
2022/09/12 09:12:32;;;;;;;14.38;11.15;;;;;;;19.74;61.91;100653.06;4162510;28;20430;-65
2022/09/12 09:15:01;;;;;;;10.40;8.55;;;;;;;19.79;61.98;100650.38;4164714;28;20041;-65
2022/09/12 09:17:10;;;;;;;11.50;8.18;;;;;;;19.84;62.26;100653.78;4147548;28;20073;-64
2022/09/12 09:19:18;;;;;;;12.00;8.68;;;;;;;19.86;62.14;100660.75;4148754;28;20041;-65
2022/09/12 09:21:25;;;;;;;11.40;8.50;;;;;;;19.93;62.62;100652.72;4157788;28;20048;-64
2022/09/12 09:23:34;;;;;;;12.50;9.55;;;;;;;19.98;61.15;100659.63;4163166;28;20096;-64
2022/09/12 09:25:48;;;;;;;11.38;8.73;;;;;;;20.09;61.04;100664.66;4163639;28;20042;-64
2022/09/12 09:27:58;;;;;;;11.43;8.10;;;;;;;20.08;61.40;100660.31;4165021;28;20045;-66
2022/09/12 09:30:02;;;;;;;11.95;7.88;;;;;;;20.11;61.19;100660.22;4147205;28;20049;-64
2022/09/12 09:32:14;;;;;;;12.83;8.33;;;;;;;20.18;61.05;100659.19;4163503;28;20072;-64
2022/09/12 09:34:20;;;;;;;12.23;8.75;;;;;;;20.28;60.01;100658.97;4162521;28;20620;-65
2022/09/12 09:36:33;;;;;;;11.18;7.97;;;;;;;20.33;60.01;100644.78;4164031;28;20091;-64